createdAt,value
2019-01-12T00:02:16.727Z,9.40
2019-01-12T00:04:43.159Z,8.47
2019-01-12T00:07:09.842Z,9.27
2019-01-12T00:09:36.342Z,8.17
2019-01-12T00:12:03.422Z,8.57
2019-01-12T00:14:29.902Z,8.77
2019-01-12T00:16:56.605Z,8.17
2019-01-12T00:19:23.293Z,8.47
2019-01-12T00:21:50.111Z,9.23
2019-01-12T00:24:16.603Z,8.83
2019-01-12T00:26:43.022Z,9.10
2019-01-12T00:29:09.676Z,10.57
2019-01-12T00:31:36.207Z,8.93
2019-01-12T00:34:02.761Z,9.53
2019-01-12T00:36:29.501Z,9.23
2019-01-12T00:38:56.216Z,9.83
2019-01-12T00:41:22.994Z,8.87
2019-01-12T00:43:49.572Z,8.77
2019-01-12T00:46:16.121Z,9.37
2019-01-12T00:48:43.581Z,9.10
2019-01-12T00:51:10.026Z,9.00
2019-01-12T00:53:36.802Z,9.67
2019-01-12T00:56:03.517Z,9.67
2019-01-12T00:58:30.152Z,8.97
2019-01-12T01:00:56.962Z,9.17
2019-01-12T01:03:23.802Z,8.80
2019-01-12T01:05:50.809Z,9.43
2019-01-12T01:08:17.515Z,11.30
2019-01-12T01:10:44.015Z,11.37
2019-01-12T01:13:10.534Z,9.03
2019-01-12T01:15:37.080Z,10.13
2019-01-12T01:18:04.008Z,11.67
2019-01-12T01:20:30.544Z,11.67
2019-01-12T01:22:58.124Z,13.07
2019-01-12T01:25:25.640Z,11.83
2019-01-12T01:27:52.452Z,12.90
2019-01-12T01:30:19.047Z,11.87
2019-01-12T01:32:45.673Z,11.67
2019-01-12T01:35:12.402Z,11.60
2019-01-12T01:37:38.807Z,11.87
2019-01-12T01:40:08.835Z,11.63
2019-01-12T01:42:35.335Z,11.70
2019-01-12T01:45:05.242Z,11.90
2019-01-12T01:47:32.694Z,10.27
2019-01-12T01:49:59.122Z,12.33
2019-01-12T01:52:25.834Z,11.43
2019-01-12T01:54:52.974Z,10.67
2019-01-12T01:57:19.995Z,9.90
2019-01-12T01:59:46.403Z,10.07
2019-01-12T02:02:12.908Z,9.83
2019-01-12T02:04:39.790Z,8.77
2019-01-12T02:07:06.488Z,9.50
2019-01-12T02:09:33.253Z,7.80
2019-01-12T02:12:00.106Z,8.53
2019-01-12T02:14:26.515Z,7.93
2019-01-12T02:16:53.168Z,7.37
2019-01-12T02:19:21.563Z,7.50
2019-01-12T02:21:47.984Z,7.67
2019-01-12T02:24:14.509Z,8.07
2019-01-12T02:26:40.931Z,8.17
2019-01-12T02:29:07.629Z,7.83
2019-01-12T02:31:34.167Z,7.80
2019-01-12T02:34:00.832Z,8.83
2019-01-12T02:36:27.538Z,8.83
2019-01-12T02:38:53.999Z,8.73
2019-01-12T02:41:20.746Z,9.47
2019-01-12T02:43:47.369Z,9.10
2019-01-12T02:46:13.908Z,7.73
2019-01-12T02:48:40.513Z,7.63
2019-01-12T02:51:07.012Z,8.27
2019-01-12T02:53:33.523Z,8.63
2019-01-12T02:56:00.049Z,9.20
2019-01-12T02:58:26.607Z,9.37
2019-01-12T03:00:53.119Z,9.83
2019-01-12T03:03:19.735Z,9.40
2019-01-12T03:05:46.226Z,8.37
2019-01-12T03:08:12.640Z,8.63
2019-01-12T03:10:39.350Z,8.43
2019-01-12T03:13:07.089Z,9.20
2019-01-12T03:15:33.620Z,8.43
2019-01-12T03:18:00.153Z,9.10
2019-01-12T03:20:26.624Z,9.17
2019-01-12T03:22:53.159Z,9.17
2019-01-12T03:25:19.685Z,8.63
2019-01-12T03:27:46.588Z,8.77
2019-01-12T03:30:15.186Z,7.80
2019-01-12T03:32:41.680Z,8.93
2019-01-12T03:35:08.319Z,7.40
2019-01-12T03:37:34.834Z,8.30
2019-01-12T03:40:01.419Z,8.83
2019-01-12T03:42:28.065Z,8.90
2019-01-12T03:44:54.568Z,7.33
2019-01-12T03:47:21.144Z,7.67
2019-01-12T03:49:47.734Z,8.17
2019-01-12T03:52:14.424Z,8.13
2019-01-12T03:54:41.207Z,7.10
2019-01-12T03:57:07.804Z,8.07
2019-01-12T03:59:34.573Z,8.60
2019-01-12T04:02:01.430Z,8.53
2019-01-12T04:04:29.370Z,7.10
2019-01-12T04:06:55.879Z,7.77
2019-01-12T04:09:22.396Z,7.60
2019-01-12T04:11:49.129Z,7.23
2019-01-12T04:14:16.004Z,7.93
2019-01-12T04:16:42.712Z,8.00
2019-01-12T04:19:09.220Z,7.70
2019-01-12T04:21:35.820Z,8.57
2019-01-12T04:24:02.583Z,8.20
2019-01-12T04:26:29.294Z,7.40
2019-01-12T04:28:55.911Z,8.60
2019-01-12T04:31:22.321Z,7.90
2019-01-12T04:33:49.102Z,8.13
2019-01-12T04:36:15.807Z,7.67
2019-01-12T04:38:42.255Z,7.37
2019-01-12T04:41:08.671Z,8.13
2019-01-12T04:43:35.170Z,7.73
2019-01-12T04:46:01.843Z,8.10
2019-01-12T04:48:28.371Z,7.57
2019-01-12T04:50:54.871Z,8.77
2019-01-12T04:53:21.385Z,6.63
2019-01-12T04:55:48.952Z,8.23
2019-01-12T04:58:15.598Z,7.60
2019-01-12T05:00:42.136Z,8.90
2019-01-12T05:03:08.908Z,7.87
2019-01-12T05:05:35.448Z,7.60
2019-01-12T05:08:01.880Z,8.27
2019-01-12T05:10:28.879Z,8.10
2019-01-12T05:12:55.422Z,8.23
2019-01-12T05:15:21.925Z,8.20
2019-01-12T05:17:48.425Z,8.20
2019-01-12T05:20:16.544Z,6.73
2019-01-12T05:22:43.144Z,7.23
2019-01-12T05:25:09.781Z,8.03
2019-01-12T05:27:36.257Z,8.43
2019-01-12T05:30:09.392Z,8.30
2019-01-12T05:32:35.879Z,7.50
2019-01-12T05:35:03.489Z,7.70
2019-01-12T05:37:29.889Z,7.30
2019-01-12T05:39:57.414Z,6.43
2019-01-12T05:42:23.940Z,7.37
2019-01-12T05:44:50.435Z,7.63
2019-01-12T05:47:17.200Z,8.17
2019-01-12T05:49:43.611Z,7.57
2019-01-12T05:52:11.157Z,7.10
2019-01-12T05:54:37.871Z,6.90
2019-01-12T05:57:04.294Z,6.00
2019-01-12T05:59:30.797Z,7.10
2019-01-12T06:01:57.306Z,6.30
2019-01-12T06:04:23.739Z,6.53
2019-01-12T06:06:50.252Z,7.07
2019-01-12T06:09:16.677Z,6.90
2019-01-12T06:11:43.186Z,7.37
2019-01-12T06:14:09.970Z,6.53
2019-01-12T06:16:36.470Z,5.97
2019-01-12T06:19:03.276Z,7.70
2019-01-12T06:21:29.806Z,7.33
2019-01-12T06:23:56.566Z,6.17
2019-01-12T06:26:23.139Z,6.77
2019-01-12T06:28:53.317Z,6.33
2019-01-12T06:31:20.928Z,7.20
2019-01-12T06:33:48.718Z,6.40
2019-01-12T06:36:15.534Z,6.70
2019-01-12T06:38:43.178Z,6.53
2019-01-12T06:41:09.786Z,5.67
2019-01-12T06:43:41.075Z,6.57
2019-01-12T06:46:07.774Z,5.70
2019-01-12T06:48:34.180Z,6.00
2019-01-12T06:51:00.598Z,4.90
2019-01-12T06:53:27.015Z,14.27
2019-01-12T06:55:53.547Z,18.50
2019-01-12T06:58:20.239Z,16.43
2019-01-12T07:00:47.194Z,6.20
2019-01-12T07:03:13.692Z,5.53
2019-01-12T07:05:40.220Z,6.60
2019-01-12T07:08:06.973Z,5.73
2019-01-12T07:10:33.388Z,8.13
2019-01-12T07:12:59.811Z,8.23
2019-01-12T07:15:27.376Z,6.00
2019-01-12T07:17:54.057Z,6.80
2019-01-12T07:20:20.826Z,7.13
2019-01-12T07:22:47.598Z,6.63
2019-01-12T07:25:14.242Z,6.53
2019-01-12T07:27:42.080Z,9.97
2019-01-12T07:30:14.957Z,8.27
2019-01-12T07:32:41.354Z,7.90
2019-01-12T07:35:08.806Z,6.57
2019-01-12T07:37:40.786Z,7.33
2019-01-12T07:40:07.694Z,7.67
2019-01-12T07:42:34.342Z,8.40
2019-01-12T07:45:00.874Z,6.67
2019-01-12T07:47:27.472Z,7.33
2019-01-12T07:49:53.996Z,6.60
2019-01-12T07:52:20.525Z,5.17
2019-01-12T07:54:47.875Z,6.40
2019-01-12T07:57:14.695Z,5.30
2019-01-12T07:59:41.196Z,5.33
2019-01-12T08:02:07.601Z,6.03
2019-01-12T08:04:34.083Z,9.93
2019-01-12T08:07:00.815Z,7.07
2019-01-12T08:09:27.616Z,6.57
2019-01-12T08:11:54.411Z,6.83
2019-01-12T08:14:20.793Z,23.20
2019-01-12T08:16:47.220Z,7.50
2019-01-12T08:19:13.756Z,6.77
2019-01-12T08:21:40.534Z,7.00
2019-01-12T08:24:06.953Z,6.60
2019-01-12T08:26:35.458Z,15.60
2019-01-12T08:29:02.216Z,9.73
2019-01-12T08:31:28.684Z,7.80
2019-01-12T08:33:55.176Z,6.83
2019-01-12T08:36:22.053Z,8.63
2019-01-12T08:38:48.539Z,6.40
2019-01-12T08:43:43.867Z,6.70
2019-01-12T08:46:10.429Z,6.93
2019-01-12T08:48:37.212Z,6.20
2019-01-12T08:51:04.655Z,6.30
2019-01-12T08:53:31.278Z,6.00
2019-01-12T08:55:58.073Z,6.00
2019-01-12T08:58:24.470Z,6.43
2019-01-12T09:00:52.218Z,9.33
2019-01-12T09:03:18.632Z,12.90
2019-01-12T09:05:45.042Z,6.30
2019-01-12T09:08:11.714Z,9.27
2019-01-12T09:10:38.559Z,12.23
2019-01-12T09:13:05.313Z,12.30
2019-01-12T09:15:31.954Z,10.67
2019-01-12T09:17:58.722Z,10.03
2019-01-12T09:20:25.240Z,9.43
2019-01-12T09:22:51.755Z,5.67
2019-01-12T09:25:18.153Z,8.57
2019-01-12T09:27:44.671Z,7.17
2019-01-12T09:30:13.979Z,5.83
2019-01-12T09:32:40.770Z,6.13
2019-01-12T09:35:07.387Z,5.90
2019-01-12T09:37:34.019Z,6.07
2019-01-12T09:40:00.519Z,6.13
2019-01-12T09:42:26.947Z,5.27
2019-01-12T09:44:54.670Z,4.90
2019-01-12T09:47:21.447Z,5.10
2019-01-12T09:49:47.875Z,4.93
2019-01-12T09:52:14.402Z,5.63
2019-01-12T09:54:40.815Z,5.83
2019-01-12T09:57:07.220Z,4.97
2019-01-12T09:59:33.678Z,5.60
2019-01-12T10:02:00.284Z,4.93
2019-01-12T10:04:27.074Z,13.60
2019-01-12T10:06:53.588Z,6.13
2019-01-12T10:09:20.095Z,5.77
2019-01-12T10:11:46.771Z,4.17
2019-01-12T10:14:13.202Z,4.60
2019-01-12T10:16:39.646Z,5.47
2019-01-12T10:19:06.064Z,4.43
2019-01-12T10:21:32.499Z,4.00
2019-01-12T10:23:58.987Z,6.07
2019-01-12T10:26:25.763Z,4.90
2019-01-12T10:28:52.188Z,5.43
2019-01-12T10:31:18.961Z,4.83
2019-01-12T10:33:45.750Z,8.90
2019-01-12T10:36:12.184Z,4.67
2019-01-12T10:38:38.687Z,5.53
2019-01-12T10:41:05.305Z,4.80
2019-01-12T10:43:31.808Z,4.33
2019-01-12T10:45:58.263Z,3.57
2019-01-12T10:48:25.059Z,4.30
2019-01-12T10:50:51.487Z,4.23
2019-01-12T10:53:18.013Z,4.27
2019-01-12T10:55:44.534Z,3.60
2019-01-12T10:58:11.067Z,4.60
2019-01-12T11:00:38.699Z,5.20
2019-01-12T11:03:05.643Z,5.63
2019-01-12T11:05:32.334Z,6.00
2019-01-12T11:07:58.752Z,6.03
2019-01-12T11:10:25.365Z,6.43
2019-01-12T11:12:51.899Z,7.10
2019-01-12T11:15:20.321Z,7.73
2019-01-12T11:17:47.399Z,9.27
2019-01-12T11:20:14.436Z,11.57
2019-01-12T11:22:42.060Z,6.47
2019-01-12T11:25:11.882Z,5.37
2019-01-12T11:27:38.771Z,6.60
2019-01-12T11:30:12.241Z,7.17
2019-01-12T11:32:39.806Z,5.90
2019-01-12T11:35:07.839Z,5.70
2019-01-12T11:37:34.487Z,5.80
2019-01-12T11:40:01.096Z,5.90
2019-01-12T11:42:27.594Z,6.83
2019-01-12T11:44:54.142Z,6.43
2019-01-12T11:47:20.586Z,6.73
2019-01-12T11:49:47.404Z,4.57
2019-01-12T11:52:13.995Z,6.13
2019-01-12T11:54:40.777Z,6.17
2019-01-12T11:57:11.517Z,5.33
2019-01-12T11:59:38.025Z,5.23
2019-01-12T12:02:04.760Z,4.20
2019-01-12T12:04:31.179Z,3.37
2019-01-12T12:06:57.809Z,4.27
2019-01-12T12:09:24.404Z,3.77
2019-01-12T12:11:51.213Z,3.57
2019-01-12T12:14:17.813Z,3.83
2019-01-12T12:16:44.408Z,3.77
2019-01-12T12:19:10.848Z,3.43
2019-01-12T12:21:38.879Z,3.40
2019-01-12T12:24:06.747Z,3.57
2019-01-12T12:26:34.278Z,4.03
2019-01-12T12:29:08.941Z,38.73
2019-01-12T12:31:35.584Z,7.73
2019-01-12T12:34:02.514Z,4.13
2019-01-12T12:36:29.245Z,4.53
2019-01-12T12:38:55.691Z,3.67
2019-01-12T12:41:22.289Z,4.53
2019-01-12T12:43:48.904Z,4.03
2019-01-12T12:46:15.426Z,5.50
2019-01-12T12:48:41.943Z,4.80
2019-01-12T12:51:08.489Z,4.80
2019-01-12T12:53:35.155Z,6.93
2019-01-12T12:56:02.978Z,3.83
2019-01-12T12:58:29.477Z,3.57
2019-01-12T13:00:55.911Z,3.33
2019-01-12T13:03:22.346Z,3.83
2019-01-12T13:05:48.865Z,4.03
2019-01-12T13:08:15.667Z,4.23
2019-01-12T13:10:42.174Z,4.47
2019-01-12T13:13:08.851Z,4.27
2019-01-12T13:15:35.355Z,4.50
2019-01-12T13:18:02.450Z,4.27
2019-01-12T13:20:29.059Z,5.20
2019-01-12T13:22:55.586Z,4.00
2019-01-12T13:25:22.299Z,4.37
2019-01-12T13:27:49.051Z,4.47
2019-01-12T13:30:18.223Z,4.00
2019-01-12T13:32:44.879Z,3.97
2019-01-12T13:35:11.536Z,4.00
2019-01-12T13:37:38.144Z,4.33
2019-01-12T13:40:08.391Z,3.80
2019-01-12T13:42:35.172Z,4.27
2019-01-12T13:45:03.291Z,4.37
2019-01-12T13:47:29.720Z,4.50
2019-01-12T13:49:56.230Z,4.13
2019-01-12T13:52:22.670Z,4.47
2019-01-12T13:54:49.463Z,4.50
2019-01-12T13:57:17.083Z,4.17
2019-01-12T13:59:43.829Z,4.77
2019-01-12T14:02:10.942Z,4.27
2019-01-12T14:04:37.361Z,6.20
2019-01-12T14:07:04.370Z,4.60
2019-01-12T14:09:30.801Z,4.33
2019-01-12T14:11:57.518Z,4.00
2019-01-12T14:14:23.931Z,4.23
2019-01-12T14:16:50.342Z,3.93
2019-01-12T14:19:17.050Z,4.70
2019-01-12T14:21:43.747Z,5.33
2019-01-12T14:24:10.584Z,5.50
2019-01-12T14:26:36.986Z,4.87
2019-01-12T14:29:03.721Z,5.03
2019-01-12T14:31:30.275Z,6.13
2019-01-12T14:33:56.773Z,12.50
2019-01-12T14:36:23.558Z,5.57
2019-01-12T14:38:50.371Z,4.90
2019-01-12T14:41:16.798Z,5.27
2019-01-12T14:43:43.240Z,4.93
2019-01-12T14:46:09.888Z,5.23
2019-01-12T14:48:36.648Z,4.97
2019-01-12T14:51:04.006Z,5.27
2019-01-12T14:53:34.639Z,5.03
2019-01-12T14:56:04.410Z,4.80
2019-01-12T14:58:32.332Z,5.00
2019-01-12T15:00:59.253Z,4.80
2019-01-12T15:03:25.871Z,5.50
2019-01-12T15:05:52.464Z,5.83
2019-01-12T15:08:19.447Z,4.93
2019-01-12T15:10:45.861Z,5.67
2019-01-12T15:13:12.433Z,5.57
2019-01-12T15:15:38.942Z,5.37
2019-01-12T15:18:05.451Z,4.80
2019-01-12T15:20:31.936Z,4.33
2019-01-12T15:22:59.682Z,4.93
2019-01-12T15:25:26.239Z,5.70
2019-01-12T15:27:52.675Z,5.10
2019-01-12T15:30:22.290Z,5.27
2019-01-12T15:32:49.005Z,5.60
2019-01-12T15:35:16.487Z,4.63
2019-01-12T15:37:43.505Z,4.43
2019-01-12T15:40:13.326Z,4.90
2019-01-12T15:42:39.856Z,5.03
2019-01-12T15:45:10.331Z,4.40
2019-01-12T15:47:36.869Z,5.03
2019-01-12T15:50:10.143Z,4.43
2019-01-12T15:52:37.806Z,4.60
2019-01-12T15:55:04.960Z,4.30
2019-01-12T15:57:32.533Z,4.67
2019-01-12T15:59:59.352Z,4.37
2019-01-12T16:02:26.388Z,4.53
2019-01-12T16:04:53.112Z,6.03
2019-01-12T16:07:19.592Z,5.30
2019-01-12T16:09:48.107Z,4.97
2019-01-12T16:12:15.056Z,4.93
2019-01-12T16:14:41.597Z,7.03
2019-01-12T16:17:08.128Z,6.63
2019-01-12T16:19:34.686Z,5.13
2019-01-12T16:22:02.226Z,4.60
2019-01-12T16:24:28.760Z,4.50
2019-01-12T16:26:55.310Z,5.13
2019-01-12T16:29:21.869Z,4.87
2019-01-12T16:31:48.676Z,4.83
2019-01-12T16:34:15.436Z,4.37
2019-01-12T16:36:42.240Z,5.87
2019-01-12T16:39:08.800Z,4.80
2019-01-12T16:41:35.575Z,4.30
2019-01-12T16:44:02.511Z,4.90
2019-01-12T16:46:29.009Z,5.10
2019-01-12T16:48:55.522Z,4.83
2019-01-12T16:51:21.943Z,4.30
2019-01-12T16:53:48.489Z,4.27
2019-01-12T16:56:14.987Z,5.10
2019-01-12T16:58:41.415Z,3.97
2019-01-12T17:01:08.131Z,4.43
2019-01-12T17:03:37.454Z,4.00
2019-01-12T17:06:05.273Z,4.10
2019-01-12T17:08:31.768Z,4.43
2019-01-12T17:10:58.298Z,4.07
2019-01-12T17:13:25.123Z,3.73
2019-01-12T17:15:51.659Z,3.83
2019-01-12T17:18:18.719Z,3.60
2019-01-12T17:20:45.228Z,3.97
2019-01-12T17:23:11.968Z,3.50
2019-01-12T17:25:39.374Z,3.80
2019-01-12T17:28:05.823Z,3.60
2019-01-12T17:30:32.347Z,4.03
2019-01-12T17:32:59.164Z,4.00
2019-01-12T17:35:26.802Z,4.43
2019-01-12T17:37:53.309Z,4.87
2019-01-12T17:40:19.949Z,4.83
2019-01-12T17:42:46.471Z,16.60
2019-01-12T17:45:15.299Z,4.47
2019-01-12T17:47:42.804Z,4.10
2019-01-12T17:50:12.682Z,4.17
2019-01-12T17:52:39.204Z,4.80
2019-01-12T17:55:12.390Z,4.73
2019-01-12T17:57:38.989Z,4.33
2019-01-12T18:00:09.790Z,4.63
2019-01-12T18:02:36.420Z,4.50
2019-01-12T18:05:04.659Z,4.43
2019-01-12T18:07:31.055Z,4.70
2019-01-12T18:09:57.856Z,4.97
2019-01-12T18:12:24.274Z,4.97
2019-01-12T18:14:50.803Z,4.23
2019-01-12T18:17:17.587Z,4.53
2019-01-12T18:19:44.420Z,4.33
2019-01-12T18:22:11.759Z,4.60
2019-01-12T18:24:38.460Z,4.57
2019-01-12T18:27:05.123Z,4.67
2019-01-12T18:29:33.743Z,4.00
2019-01-12T18:32:00.270Z,4.47
2019-01-12T18:34:27.777Z,4.10
2019-01-12T18:36:54.299Z,4.40
2019-01-12T18:39:20.863Z,3.90
2019-01-12T18:41:47.324Z,3.93
2019-01-12T18:44:13.944Z,4.33
2019-01-12T18:46:40.511Z,4.37
2019-01-12T18:49:07.123Z,4.40
2019-01-12T18:51:33.725Z,3.20
2019-01-12T18:54:00.570Z,4.47
2019-01-12T18:56:26.992Z,3.67
2019-01-12T18:58:58.954Z,4.10
2019-01-12T19:01:22.275Z,5.97
2019-01-12T19:03:48.838Z,4.40
2019-01-12T19:06:16.346Z,3.50
2019-01-12T19:08:42.949Z,3.63
2019-01-12T19:11:09.584Z,3.87
2019-01-12T19:13:36.125Z,3.63
2019-01-12T19:16:03.900Z,3.40
2019-01-12T19:18:30.934Z,2.80
2019-01-12T19:20:57.510Z,2.53
2019-01-12T19:23:24.204Z,4.07
2019-01-12T19:25:51.084Z,2.50
2019-01-12T19:28:17.796Z,2.40
2019-01-12T19:30:44.215Z,2.53
2019-01-12T19:33:10.859Z,2.37
2019-01-12T19:35:37.596Z,2.07
2019-01-12T19:38:04.257Z,2.17
2019-01-12T19:40:30.904Z,2.00
2019-01-12T19:42:57.677Z,2.00
2019-01-12T19:45:24.179Z,2.00
2019-01-12T19:47:52.319Z,2.70
2019-01-12T19:50:21.963Z,2.37
2019-01-12T19:52:48.991Z,1.73
2019-01-12T19:55:15.633Z,2.67
2019-01-12T19:57:42.175Z,2.60
2019-01-12T20:00:12.335Z,2.10
2019-01-12T20:02:39.183Z,2.50
2019-01-12T20:05:06.551Z,2.30
2019-01-12T20:07:33.102Z,1.53
2019-01-12T20:09:59.599Z,1.73
2019-01-12T20:12:27.509Z,1.50
2019-01-12T20:14:54.580Z,1.90
2019-01-12T20:17:21.112Z,1.50
2019-01-12T20:19:47.746Z,1.90
2019-01-12T20:22:15.665Z,1.60
2019-01-12T20:24:42.217Z,1.33
2019-01-12T20:27:09.379Z,1.50
2019-01-12T20:29:35.912Z,1.60
2019-01-12T20:32:09.520Z,1.40
2019-01-12T20:34:37.838Z,1.17
2019-01-12T20:37:14.067Z,1.20
2019-01-12T20:39:49.183Z,1.63
2019-01-12T20:42:28.511Z,2.20
2019-01-12T20:45:04.791Z,1.83
2019-01-12T20:47:59.195Z,1.37
2019-01-12T20:50:29.415Z,1.53
2019-01-12T20:53:08.724Z,2.53
2019-01-12T20:55:48.086Z,2.67
2019-01-12T20:58:37.526Z,1.50
2019-01-12T21:01:23.215Z,1.37
2019-01-12T21:04:05.387Z,1.07
2019-01-12T21:06:53.613Z,1.70
2019-01-12T21:09:39.355Z,1.73
2019-01-12T21:12:41.239Z,1.53
2019-01-12T21:15:12.704Z,1.30
2019-01-12T21:17:39.214Z,1.43
2019-01-12T21:20:08.421Z,1.50
2019-01-12T21:22:34.931Z,0.90
2019-01-12T21:25:01.682Z,1.23
2019-01-12T21:27:29.530Z,0.90
2019-01-12T21:29:55.995Z,1.03
2019-01-12T21:32:22.441Z,1.10
2019-01-12T21:34:48.973Z,1.10
2019-01-12T21:37:16.547Z,0.93
2019-01-12T21:39:43.092Z,0.90
2019-01-12T21:42:09.508Z,1.20
2019-01-12T21:44:36.317Z,1.00
2019-01-12T21:47:03.222Z,0.97
2019-01-12T21:49:29.998Z,0.97
2019-01-12T21:51:56.386Z,0.90
2019-01-12T21:54:22.837Z,0.70
2019-01-12T21:56:49.359Z,0.73
2019-01-12T21:59:16.796Z,0.83
2019-01-12T22:01:43.518Z,0.70
2019-01-12T22:04:10.026Z,0.90
2019-01-12T22:06:36.673Z,0.77
2019-01-12T22:09:06.176Z,0.90
2019-01-12T22:11:32.894Z,1.00
2019-01-12T22:13:59.356Z,0.70
2019-01-12T22:16:25.969Z,0.70
2019-01-12T22:18:52.458Z,0.80
2019-01-12T22:21:19.096Z,0.83
2019-01-12T22:23:45.531Z,0.80
2019-01-12T22:26:12.046Z,0.80
2019-01-12T22:28:39.934Z,0.60
2019-01-12T22:31:06.962Z,0.80
2019-01-12T22:33:34.455Z,0.90
2019-01-12T22:36:01.258Z,0.90
2019-01-12T22:38:28.013Z,1.20
2019-01-12T22:40:54.853Z,1.13
2019-01-12T22:43:21.479Z,1.23
2019-01-12T22:45:48.557Z,1.13
2019-01-12T22:48:15.112Z,1.43
2019-01-12T22:50:41.911Z,1.20
2019-01-12T22:53:08.667Z,1.10
2019-01-12T22:55:35.183Z,1.27
2019-01-12T22:58:01.935Z,1.30
2019-01-12T23:00:32.486Z,1.20
2019-01-12T23:02:59.572Z,1.40
2019-01-12T23:05:26.326Z,1.00
2019-01-12T23:07:53.099Z,1.00
2019-01-12T23:10:19.624Z,0.87
2019-01-12T23:12:46.021Z,1.20
2019-01-12T23:15:12.673Z,1.10
2019-01-12T23:17:40.559Z,1.13
2019-01-12T23:20:07.880Z,1.00
2019-01-12T23:22:34.397Z,0.97
2019-01-12T23:25:01.002Z,1.30
2019-01-12T23:27:27.538Z,1.20
2019-01-12T23:29:54.046Z,1.00
2019-01-12T23:32:20.753Z,1.10
2019-01-12T23:34:47.168Z,0.90
2019-01-12T23:37:13.783Z,1.27
2019-01-12T23:39:40.181Z,1.23
2019-01-12T23:42:06.827Z,1.30
2019-01-12T23:44:33.598Z,1.53
2019-01-12T23:47:00.016Z,1.40
2019-01-12T23:49:26.735Z,1.20
2019-01-12T23:51:53.504Z,1.27
2019-01-12T23:54:20.162Z,1.47
2019-01-12T23:56:46.607Z,1.13
2019-01-12T23:59:13.107Z,0.80
